sensor_id;sensor_type;location;lat;lon;timestamp;temperature;humidity
70074;DHT22;57445;51.058;3.698;2023-07-13T00:02:17;17.50;93.50
70074;DHT22;57445;51.058;3.698;2023-07-13T00:04:44;17.60;93.40
70074;DHT22;57445;51.058;3.698;2023-07-13T00:07:12;17.60;93.40
70074;DHT22;57445;51.058;3.698;2023-07-13T00:09:42;17.60;93.60
70074;DHT22;57445;51.058;3.698;2023-07-13T00:12:21;17.40;93.90
70074;DHT22;57445;51.058;3.698;2023-07-13T00:14:49;17.40;94.00
70074;DHT22;57445;51.058;3.698;2023-07-13T00:17:17;17.30;94.30
70074;DHT22;57445;51.058;3.698;2023-07-13T00:19:45;17.30;94.30
70074;DHT22;57445;51.058;3.698;2023-07-13T00:22:13;17.30;94.30
70074;DHT22;57445;51.058;3.698;2023-07-13T00:24:44;17.50;93.90
70074;DHT22;57445;51.058;3.698;2023-07-13T00:27:14;17.40;94.10
70074;DHT22;57445;51.058;3.698;2023-07-13T00:29:44;17.40;94.30
70074;DHT22;57445;51.058;3.698;2023-07-13T00:32:11;17.30;94.60
70074;DHT22;57445;51.058;3.698;2023-07-13T00:34:39;17.20;94.70
70074;DHT22;57445;51.058;3.698;2023-07-13T00:37:07;17.20;94.70
70074;DHT22;57445;51.058;3.698;2023-07-13T00:39:35;17.20;94.80
70074;DHT22;57445;51.058;3.698;2023-07-13T00:42:04;17.20;94.90
70074;DHT22;57445;51.058;3.698;2023-07-13T00:44:32;17.20;95.00
70074;DHT22;57445;51.058;3.698;2023-07-13T00:47:00;17.20;95.00
70074;DHT22;57445;51.058;3.698;2023-07-13T00:49:29;17.10;95.20
70074;DHT22;57445;51.058;3.698;2023-07-13T00:51:58;17.10;95.20
70074;DHT22;57445;51.058;3.698;2023-07-13T00:54:28;17.20;95.20
70074;DHT22;57445;51.058;3.698;2023-07-13T00:56:59;17.20;95.30
70074;DHT22;57445;51.058;3.698;2023-07-13T00:59:29;17.20;95.30
70074;DHT22;57445;51.058;3.698;2023-07-13T01:01:58;17.20;95.30
70074;DHT22;57445;51.058;3.698;2023-07-13T01:04:25;17.10;95.50
70074;DHT22;57445;51.058;3.698;2023-07-13T01:06:53;17.00;95.80
70074;DHT22;57445;51.058;3.698;2023-07-13T01:09:21;17.00;95.80
70074;DHT22;57445;51.058;3.698;2023-07-13T01:11:48;17.00;96.20
70074;DHT22;57445;51.058;3.698;2023-07-13T01:14:19;17.00;95.90
70074;DHT22;57445;51.058;3.698;2023-07-13T01:16:48;17.00;95.90
70074;DHT22;57445;51.058;3.698;2023-07-13T01:19:24;17.10;95.80
70074;DHT22;57445;51.058;3.698;2023-07-13T01:22:07;17.10;95.70
70074;DHT22;57445;51.058;3.698;2023-07-13T01:24:35;17.30;95.50
70074;DHT22;57445;51.058;3.698;2023-07-13T01:27:03;17.30;95.30
70074;DHT22;57445;51.058;3.698;2023-07-13T01:29:32;17.40;95.20
70074;DHT22;57445;51.058;3.698;2023-07-13T01:32:01;17.40;95.20
70074;DHT22;57445;51.058;3.698;2023-07-13T01:34:28;17.40;95.20
70074;DHT22;57445;51.058;3.698;2023-07-13T01:36:56;17.40;95.30
70074;DHT22;57445;51.058;3.698;2023-07-13T01:39:25;17.40;95.20
70074;DHT22;57445;51.058;3.698;2023-07-13T01:41:53;17.50;95.00
70074;DHT22;57445;51.058;3.698;2023-07-13T01:44:20;17.50;95.20
70074;DHT22;57445;51.058;3.698;2023-07-13T01:46:48;17.30;95.50
70074;DHT22;57445;51.058;3.698;2023-07-13T01:49:16;17.50;95.40
70074;DHT22;57445;51.058;3.698;2023-07-13T01:51:43;17.40;95.40
70074;DHT22;57445;51.058;3.698;2023-07-13T01:54:11;17.30;95.60
70074;DHT22;57445;51.058;3.698;2023-07-13T01:56:41;17.30;95.70
70074;DHT22;57445;51.058;3.698;2023-07-13T01:59:09;17.20;95.90
70074;DHT22;57445;51.058;3.698;2023-07-13T02:01:36;17.20;95.90
70074;DHT22;57445;51.058;3.698;2023-07-13T02:04:04;17.20;96.20
70074;DHT22;57445;51.058;3.698;2023-07-13T02:06:32;17.10;96.10
70074;DHT22;57445;51.058;3.698;2023-07-13T02:08:59;17.20;96.10
70074;DHT22;57445;51.058;3.698;2023-07-13T02:11:27;17.40;95.80
70074;DHT22;57445;51.058;3.698;2023-07-13T02:14:00;17.50;95.60
70074;DHT22;57445;51.058;3.698;2023-07-13T02:16:28;17.30;95.90
70074;DHT22;57445;51.058;3.698;2023-07-13T02:18:55;17.30;96.20
70074;DHT22;57445;51.058;3.698;2023-07-13T02:21:23;17.20;96.30
70074;DHT22;57445;51.058;3.698;2023-07-13T02:23:52;17.20;96.40
70074;DHT22;57445;51.058;3.698;2023-07-13T02:26:20;17.20;96.40
70074;DHT22;57445;51.058;3.698;2023-07-13T02:28:48;17.00;96.80
70074;DHT22;57445;51.058;3.698;2023-07-13T02:31:17;17.00;96.80
70074;DHT22;57445;51.058;3.698;2023-07-13T02:33:45;17.10;96.80
70074;DHT22;57445;51.058;3.698;2023-07-13T02:36:14;17.20;96.50
70074;DHT22;57445;51.058;3.698;2023-07-13T02:38:42;17.30;96.30
70074;DHT22;57445;51.058;3.698;2023-07-13T02:41:10;17.20;96.50
70074;DHT22;57445;51.058;3.698;2023-07-13T02:43:39;17.20;96.60
70074;DHT22;57445;51.058;3.698;2023-07-13T02:46:07;17.20;96.50
70074;DHT22;57445;51.058;3.698;2023-07-13T02:48:37;17.20;96.50
70074;DHT22;57445;51.058;3.698;2023-07-13T02:51:05;17.20;96.40
70074;DHT22;57445;51.058;3.698;2023-07-13T02:53:33;17.20;96.50
70074;DHT22;57445;51.058;3.698;2023-07-13T02:56:02;17.40;96.40
70074;DHT22;57445;51.058;3.698;2023-07-13T02:58:30;17.20;96.40
70074;DHT22;57445;51.058;3.698;2023-07-13T03:00:58;17.10;96.70
70074;DHT22;57445;51.058;3.698;2023-07-13T03:03:26;17.20;96.70
70074;DHT22;57445;51.058;3.698;2023-07-13T03:05:59;17.20;96.60
70074;DHT22;57445;51.058;3.698;2023-07-13T03:08:28;17.20;96.70
70074;DHT22;57445;51.058;3.698;2023-07-13T03:10:59;17.10;96.80
70074;DHT22;57445;51.058;3.698;2023-07-13T03:13:28;17.10;96.70
70074;DHT22;57445;51.058;3.698;2023-07-13T03:15:55;17.10;96.80
70074;DHT22;57445;51.058;3.698;2023-07-13T03:18:23;17.20;96.70
70074;DHT22;57445;51.058;3.698;2023-07-13T03:20:51;17.30;96.80
70074;DHT22;57445;51.058;3.698;2023-07-13T03:23:22;17.20;96.70
70074;DHT22;57445;51.058;3.698;2023-07-13T03:26:00;17.20;96.80
70074;DHT22;57445;51.058;3.698;2023-07-13T03:28:28;17.20;96.80
70074;DHT22;57445;51.058;3.698;2023-07-13T03:30:59;17.30;96.70
70074;DHT22;57445;51.058;3.698;2023-07-13T03:33:27;17.40;96.70
70074;DHT22;57445;51.058;3.698;2023-07-13T03:35:55;17.50;96.50
70074;DHT22;57445;51.058;3.698;2023-07-13T03:38:24;17.80;95.90
70074;DHT22;57445;51.058;3.698;2023-07-13T03:40:54;17.70;96.00
70074;DHT22;57445;51.058;3.698;2023-07-13T03:43:23;17.90;95.80
70074;DHT22;57445;51.058;3.698;2023-07-13T03:45:50;17.70;96.00
70074;DHT22;57445;51.058;3.698;2023-07-13T03:48:19;17.60;96.10
70074;DHT22;57445;51.058;3.698;2023-07-13T03:50:47;17.50;96.20
70074;DHT22;57445;51.058;3.698;2023-07-13T03:53:15;17.40;96.50
70074;DHT22;57445;51.058;3.698;2023-07-13T03:55:46;17.70;96.10
70074;DHT22;57445;51.058;3.698;2023-07-13T03:58:24;17.80;95.90
70074;DHT22;57445;51.058;3.698;2023-07-13T04:00:52;17.80;95.80
70074;DHT22;57445;51.058;3.698;2023-07-13T04:03:20;17.70;96.00
70074;DHT22;57445;51.058;3.698;2023-07-13T04:05:48;17.60;96.40
70074;DHT22;57445;51.058;3.698;2023-07-13T04:08:16;17.60;96.40
70074;DHT22;57445;51.058;3.698;2023-07-13T04:10:45;17.60;96.40
70074;DHT22;57445;51.058;3.698;2023-07-13T04:13:13;17.70;96.40
70074;DHT22;57445;51.058;3.698;2023-07-13T04:15:41;17.80;96.20
70074;DHT22;57445;51.058;3.698;2023-07-13T04:18:11;18.00;95.80
70074;DHT22;57445;51.058;3.698;2023-07-13T04:20:39;18.00;95.60
70074;DHT22;57445;51.058;3.698;2023-07-13T04:23:07;18.30;95.30
70074;DHT22;57445;51.058;3.698;2023-07-13T04:25:35;18.30;95.50
70074;DHT22;57445;51.058;3.698;2023-07-13T04:28:05;18.20;95.40
70074;DHT22;57445;51.058;3.698;2023-07-13T04:30:33;18.30;95.10
70074;DHT22;57445;51.058;3.698;2023-07-13T04:33:01;18.20;95.20
70074;DHT22;57445;51.058;3.698;2023-07-13T04:35:29;18.00;95.70
70074;DHT22;57445;51.058;3.698;2023-07-13T04:37:59;18.00;95.80
70074;DHT22;57445;51.058;3.698;2023-07-13T04:40:27;17.90;95.50
70074;DHT22;57445;51.058;3.698;2023-07-13T04:42:55;18.10;95.60
70074;DHT22;57445;51.058;3.698;2023-07-13T04:45:25;18.20;95.50
70074;DHT22;57445;51.058;3.698;2023-07-13T04:47:53;18.40;95.40
70074;DHT22;57445;51.058;3.698;2023-07-13T04:50:21;18.40;95.00
70074;DHT22;57445;51.058;3.698;2023-07-13T04:52:50;18.50;95.10
70074;DHT22;57445;51.058;3.698;2023-07-13T04:55:18;18.70;94.60
70074;DHT22;57445;51.058;3.698;2023-07-13T04:57:46;18.80;94.20
70074;DHT22;57445;51.058;3.698;2023-07-13T05:00:14;18.70;94.40
70074;DHT22;57445;51.058;3.698;2023-07-13T05:02:44;18.60;94.70
70074;DHT22;57445;51.058;3.698;2023-07-13T05:05:13;18.60;94.70
70074;DHT22;57445;51.058;3.698;2023-07-13T05:07:41;18.60;95.00
70074;DHT22;57445;51.058;3.698;2023-07-13T05:10:09;18.80;94.40
70074;DHT22;57445;51.058;3.698;2023-07-13T05:12:37;18.70;94.60
70074;DHT22;57445;51.058;3.698;2023-07-13T05:15:05;18.70;94.60
70074;DHT22;57445;51.058;3.698;2023-07-13T05:17:33;18.80;94.60
70074;DHT22;57445;51.058;3.698;2023-07-13T05:20:04;18.90;94.50
70074;DHT22;57445;51.058;3.698;2023-07-13T05:22:32;18.90;94.30
70074;DHT22;57445;51.058;3.698;2023-07-13T05:25:01;19.10;94.30
70074;DHT22;57445;51.058;3.698;2023-07-13T05:27:29;19.20;94.00
70074;DHT22;57445;51.058;3.698;2023-07-13T05:29:56;19.30;94.00
70074;DHT22;57445;51.058;3.698;2023-07-13T05:32:25;19.40;93.70
70074;DHT22;57445;51.058;3.698;2023-07-13T05:34:52;19.30;93.80
70074;DHT22;57445;51.058;3.698;2023-07-13T05:37:22;19.40;93.60
70074;DHT22;57445;51.058;3.698;2023-07-13T05:39:49;19.60;93.40
70074;DHT22;57445;51.058;3.698;2023-07-13T05:42:17;19.90;93.30
70074;DHT22;57445;51.058;3.698;2023-07-13T05:44:45;20.40;91.70
70074;DHT22;57445;51.058;3.698;2023-07-13T05:47:13;20.40;92.00
70074;DHT22;57445;51.058;3.698;2023-07-13T05:49:41;20.20;92.10
70074;DHT22;57445;51.058;3.698;2023-07-13T05:52:09;20.20;92.10
70074;DHT22;57445;51.058;3.698;2023-07-13T05:54:38;20.40;91.80
70074;DHT22;57445;51.058;3.698;2023-07-13T05:57:06;20.50;91.80
70074;DHT22;57445;51.058;3.698;2023-07-13T05:59:34;20.50;91.70
70074;DHT22;57445;51.058;3.698;2023-07-13T06:02:02;20.50;91.40
70074;DHT22;57445;51.058;3.698;2023-07-13T06:04:30;20.50;91.70
70074;DHT22;57445;51.058;3.698;2023-07-13T06:06:58;20.50;91.60
70074;DHT22;57445;51.058;3.698;2023-07-13T06:09:26;20.60;91.80
70074;DHT22;57445;51.058;3.698;2023-07-13T06:11:55;20.50;91.70
70074;DHT22;57445;51.058;3.698;2023-07-13T06:14:23;20.60;91.80
70074;DHT22;57445;51.058;3.698;2023-07-13T06:16:51;20.60;91.80
70074;DHT22;57445;51.058;3.698;2023-07-13T06:19:19;20.90;91.40
70074;DHT22;57445;51.058;3.698;2023-07-13T06:21:47;20.80;91.30
70074;DHT22;57445;51.058;3.698;2023-07-13T06:24:15;20.80;91.50
70074;DHT22;57445;51.058;3.698;2023-07-13T06:26:43;20.70;91.30
70074;DHT22;57445;51.058;3.698;2023-07-13T06:29:12;20.70;91.50
70074;DHT22;57445;51.058;3.698;2023-07-13T06:31:40;20.90;91.30
70074;DHT22;57445;51.058;3.698;2023-07-13T06:34:08;21.00;91.20
70074;DHT22;57445;51.058;3.698;2023-07-13T06:36:35;21.20;91.10
70074;DHT22;57445;51.058;3.698;2023-07-13T06:39:04;21.50;90.80
70074;DHT22;57445;51.058;3.698;2023-07-13T06:41:33;22.00;90.10
70074;DHT22;57445;51.058;3.698;2023-07-13T06:44:01;22.10;88.40
70074;DHT22;57445;51.058;3.698;2023-07-13T06:46:30;21.80;89.80
70074;DHT22;57445;51.058;3.698;2023-07-13T06:48:58;22.10;89.30
70074;DHT22;57445;51.058;3.698;2023-07-13T06:51:25;22.20;87.80
70074;DHT22;57445;51.058;3.698;2023-07-13T06:53:53;21.70;89.00
70074;DHT22;57445;51.058;3.698;2023-07-13T06:56:22;21.20;90.30
70074;DHT22;57445;51.058;3.698;2023-07-13T06:58:51;21.20;90.80
70074;DHT22;57445;51.058;3.698;2023-07-13T07:01:19;21.60;90.50
70074;DHT22;57445;51.058;3.698;2023-07-13T07:03:48;22.10;88.60
70074;DHT22;57445;51.058;3.698;2023-07-13T07:06:16;22.90;87.70
70074;DHT22;57445;51.058;3.698;2023-07-13T07:08:44;23.00;85.00
70074;DHT22;57445;51.058;3.698;2023-07-13T07:11:13;22.50;85.90
70074;DHT22;57445;51.058;3.698;2023-07-13T07:13:41;22.10;86.90
70074;DHT22;57445;51.058;3.698;2023-07-13T07:16:09;22.30;87.40
70074;DHT22;57445;51.058;3.698;2023-07-13T07:18:37;22.10;86.60
70074;DHT22;57445;51.058;3.698;2023-07-13T07:21:06;22.00;87.80
70074;DHT22;57445;51.058;3.698;2023-07-13T07:23:34;22.20;87.10
70074;DHT22;57445;51.058;3.698;2023-07-13T07:26:02;22.20;86.80
70074;DHT22;57445;51.058;3.698;2023-07-13T07:28:30;22.30;86.20
70074;DHT22;57445;51.058;3.698;2023-07-13T07:30:58;22.30;86.60
70074;DHT22;57445;51.058;3.698;2023-07-13T07:33:26;22.40;85.90
70074;DHT22;57445;51.058;3.698;2023-07-13T07:35:57;22.70;83.70
70074;DHT22;57445;51.058;3.698;2023-07-13T07:38:26;22.80;83.50
70074;DHT22;57445;51.058;3.698;2023-07-13T07:40:54;22.50;83.50
70074;DHT22;57445;51.058;3.698;2023-07-13T07:43:22;22.00;84.80
70074;DHT22;57445;51.058;3.698;2023-07-13T07:45:50;21.70;85.40
70074;DHT22;57445;51.058;3.698;2023-07-13T07:48:17;21.60;86.60
70074;DHT22;57445;51.058;3.698;2023-07-13T07:50:45;21.70;86.50
70074;DHT22;57445;51.058;3.698;2023-07-13T07:53:13;22.10;85.00
70074;DHT22;57445;51.058;3.698;2023-07-13T07:55:44;21.80;84.40
70074;DHT22;57445;51.058;3.698;2023-07-13T07:58:14;21.70;85.20
70074;DHT22;57445;51.058;3.698;2023-07-13T08:00:41;21.80;85.10
70074;DHT22;57445;51.058;3.698;2023-07-13T08:03:09;22.20;82.90
70074;DHT22;57445;51.058;3.698;2023-07-13T08:05:37;22.00;84.00
70074;DHT22;57445;51.058;3.698;2023-07-13T08:08:04;21.70;84.80
70074;DHT22;57445;51.058;3.698;2023-07-13T08:10:34;21.50;86.20
70074;DHT22;57445;51.058;3.698;2023-07-13T08:13:03;21.70;86.30
70074;DHT22;57445;51.058;3.698;2023-07-13T08:15:31;21.60;86.70
70074;DHT22;57445;51.058;3.698;2023-07-13T08:17:59;22.10;85.20
70074;DHT22;57445;51.058;3.698;2023-07-13T08:20:26;22.00;84.90
70074;DHT22;57445;51.058;3.698;2023-07-13T08:22:56;21.90;84.80
70074;DHT22;57445;51.058;3.698;2023-07-13T08:25:24;21.90;84.90
70074;DHT22;57445;51.058;3.698;2023-07-13T08:27:51;22.20;84.40
70074;DHT22;57445;51.058;3.698;2023-07-13T08:30:23;22.30;82.80
70074;DHT22;57445;51.058;3.698;2023-07-13T08:32:51;22.40;83.00
70074;DHT22;57445;51.058;3.698;2023-07-13T08:35:20;22.40;81.60
70074;DHT22;57445;51.058;3.698;2023-07-13T08:37:48;22.30;82.50
70074;DHT22;57445;51.058;3.698;2023-07-13T08:40:16;22.40;80.60
70074;DHT22;57445;51.058;3.698;2023-07-13T08:42:44;22.60;79.50
70074;DHT22;57445;51.058;3.698;2023-07-13T08:45:17;22.70;78.70
70074;DHT22;57445;51.058;3.698;2023-07-13T08:47:49;22.60;78.60
70074;DHT22;57445;51.058;3.698;2023-07-13T08:50:21;22.60;78.90
70074;DHT22;57445;51.058;3.698;2023-07-13T08:52:51;22.40;79.70
70074;DHT22;57445;51.058;3.698;2023-07-13T08:55:23;22.80;79.90
70074;DHT22;57445;51.058;3.698;2023-07-13T08:57:53;23.00;78.60
70074;DHT22;57445;51.058;3.698;2023-07-13T09:00:22;23.10;78.30
70074;DHT22;57445;51.058;3.698;2023-07-13T09:02:56;23.30;76.30
70074;DHT22;57445;51.058;3.698;2023-07-13T09:05:25;23.40;75.30
70074;DHT22;57445;51.058;3.698;2023-07-13T09:08:01;23.20;75.90
70074;DHT22;57445;51.058;3.698;2023-07-13T09:10:29;22.90;76.40
70074;DHT22;57445;51.058;3.698;2023-07-13T09:13:04;22.70;78.00
70074;DHT22;57445;51.058;3.698;2023-07-13T09:15:34;22.90;77.60
70074;DHT22;57445;51.058;3.698;2023-07-13T09:18:06;22.60;77.20
70074;DHT22;57445;51.058;3.698;2023-07-13T09:20:37;22.80;76.00
70074;DHT22;57445;51.058;3.698;2023-07-13T09:23:07;22.70;75.90
70074;DHT22;57445;51.058;3.698;2023-07-13T09:25:35;22.70;76.30
70074;DHT22;57445;51.058;3.698;2023-07-13T09:28:08;22.60;76.70
70074;DHT22;57445;51.058;3.698;2023-07-13T09:30:38;22.60;76.70
70074;DHT22;57445;51.058;3.698;2023-07-13T09:33:09;22.80;76.40
70074;DHT22;57445;51.058;3.698;2023-07-13T09:35:39;22.90;75.50
70074;DHT22;57445;51.058;3.698;2023-07-13T09:38:11;22.80;76.30
70074;DHT22;57445;51.058;3.698;2023-07-13T09:40:43;22.80;76.70
70074;DHT22;57445;51.058;3.698;2023-07-13T09:43:12;23.10;76.20
70074;DHT22;57445;51.058;3.698;2023-07-13T09:45:41;23.40;75.20
70074;DHT22;57445;51.058;3.698;2023-07-13T09:48:15;23.40;75.50
70074;DHT22;57445;51.058;3.698;2023-07-13T09:50:43;23.50;75.10
70074;DHT22;57445;51.058;3.698;2023-07-13T09:53:12;23.50;75.70
70074;DHT22;57445;51.058;3.698;2023-07-13T09:55:40;23.50;76.00
70074;DHT22;57445;51.058;3.698;2023-07-13T09:58:09;24.20;74.50
70074;DHT22;57445;51.058;3.698;2023-07-13T10:00:38;24.90;71.60
70074;DHT22;57445;51.058;3.698;2023-07-13T10:03:16;25.10;70.90
70074;DHT22;57445;51.058;3.698;2023-07-13T10:05:46;25.30;69.80
70074;DHT22;57445;51.058;3.698;2023-07-13T10:08:18;25.80;69.20
70074;DHT22;57445;51.058;3.698;2023-07-13T10:10:53;26.20;68.10
70074;DHT22;57445;51.058;3.698;2023-07-13T10:16:07;26.20;68.00
70074;DHT22;57445;51.058;3.698;2023-07-13T10:18:38;26.70;66.40
70074;DHT22;57445;51.058;3.698;2023-07-13T10:21:13;26.80;66.10
70074;DHT22;57445;51.058;3.698;2023-07-13T10:23:41;26.60;66.30
70074;DHT22;57445;51.058;3.698;2023-07-13T10:26:12;26.30;66.10
70074;DHT22;57445;51.058;3.698;2023-07-13T10:28:42;26.00;66.10
70074;DHT22;57445;51.058;3.698;2023-07-13T10:31:14;25.80;66.40
70074;DHT22;57445;51.058;3.698;2023-07-13T10:33:43;25.10;68.80
70074;DHT22;57445;51.058;3.698;2023-07-13T10:36:16;25.10;68.90
70074;DHT22;57445;51.058;3.698;2023-07-13T10:38:45;24.40;68.70
70074;DHT22;57445;51.058;3.698;2023-07-13T10:41:15;24.30;69.40
70074;DHT22;57445;51.058;3.698;2023-07-13T10:43:45;24.10;69.70
70074;DHT22;57445;51.058;3.698;2023-07-13T10:46:16;22.90;77.30
70074;DHT22;57445;51.058;3.698;2023-07-13T10:48:46;22.00;82.40
70074;DHT22;57445;51.058;3.698;2023-07-13T10:51:17;21.40;89.00
70074;DHT22;57445;51.058;3.698;2023-07-13T10:53:47;20.70;94.90
70074;DHT22;57445;51.058;3.698;2023-07-13T10:56:20;19.80;99.80
70074;DHT22;57445;51.058;3.698;2023-07-13T10:59:00;18.80;99.90
70074;DHT22;57445;51.058;3.698;2023-07-13T11:01:38;18.60;99.90
70074;DHT22;57445;51.058;3.698;2023-07-13T11:04:08;18.40;99.90
70074;DHT22;57445;51.058;3.698;2023-07-13T11:06:41;18.30;99.90
70074;DHT22;57445;51.058;3.698;2023-07-13T11:11:56;18.80;99.90
70074;DHT22;57445;51.058;3.698;2023-07-13T11:14:27;19.30;99.90
70074;DHT22;57445;51.058;3.698;2023-07-13T11:16:55;19.70;99.90
70074;DHT22;57445;51.058;3.698;2023-07-13T11:19:28;20.10;99.90
70074;DHT22;57445;51.058;3.698;2023-07-13T11:22:23;20.60;99.90
70074;DHT22;57445;51.058;3.698;2023-07-13T11:25:01;21.50;99.70
70074;DHT22;57445;51.058;3.698;2023-07-13T11:27:37;21.90;99.90
70074;DHT22;57445;51.058;3.698;2023-07-13T11:30:17;22.50;98.10
70074;DHT22;57445;51.058;3.698;2023-07-13T11:32:50;23.20;97.00
70074;DHT22;57445;51.058;3.698;2023-07-13T11:35:19;23.40;95.00
70074;DHT22;57445;51.058;3.698;2023-07-13T11:37:50;23.50;93.20
70074;DHT22;57445;51.058;3.698;2023-07-13T11:40:19;23.70;93.60
70074;DHT22;57445;51.058;3.698;2023-07-13T11:42:50;24.00;92.80
70074;DHT22;57445;51.058;3.698;2023-07-13T11:45:21;24.20;92.70
70074;DHT22;57445;51.058;3.698;2023-07-13T11:47:50;24.50;92.50
70074;DHT22;57445;51.058;3.698;2023-07-13T11:50:18;25.30;90.80
70074;DHT22;57445;51.058;3.698;2023-07-13T11:52:46;25.60;85.30
70074;DHT22;57445;51.058;3.698;2023-07-13T11:55:19;25.50;84.30
70074;DHT22;57445;51.058;3.698;2023-07-13T11:57:49;25.20;84.50
70074;DHT22;57445;51.058;3.698;2023-07-13T12:00:25;25.50;86.20
70074;DHT22;57445;51.058;3.698;2023-07-13T12:02:56;25.80;85.40
70074;DHT22;57445;51.058;3.698;2023-07-13T12:05:26;25.50;83.90
70074;DHT22;57445;51.058;3.698;2023-07-13T12:07:55;25.30;82.00
70074;DHT22;57445;51.058;3.698;2023-07-13T12:10:26;24.70;81.40
70074;DHT22;57445;51.058;3.698;2023-07-13T12:12:55;23.90;86.00
70074;DHT22;57445;51.058;3.698;2023-07-13T12:15:27;23.60;85.50
70074;DHT22;57445;51.058;3.698;2023-07-13T12:17:56;23.50;85.50
70074;DHT22;57445;51.058;3.698;2023-07-13T12:20:24;23.70;84.40
70074;DHT22;57445;51.058;3.698;2023-07-13T12:22:51;23.80;83.60
70074;DHT22;57445;51.058;3.698;2023-07-13T12:25:19;24.20;82.80
70074;DHT22;57445;51.058;3.698;2023-07-13T12:27:50;24.50;82.90
70074;DHT22;57445;51.058;3.698;2023-07-13T12:30:25;24.50;80.90
70074;DHT22;57445;51.058;3.698;2023-07-13T12:32:55;24.60;80.70
70074;DHT22;57445;51.058;3.698;2023-07-13T12:35:23;24.70;81.10
70074;DHT22;57445;51.058;3.698;2023-07-13T12:37:51;25.10;80.80
70074;DHT22;57445;51.058;3.698;2023-07-13T12:40:19;25.10;78.00
70074;DHT22;57445;51.058;3.698;2023-07-13T12:42:50;24.90;78.30
70074;DHT22;57445;51.058;3.698;2023-07-13T12:45:20;25.10;79.10
70074;DHT22;57445;51.058;3.698;2023-07-13T12:47:49;25.50;77.60
70074;DHT22;57445;51.058;3.698;2023-07-13T12:50:18;25.80;75.30
70074;DHT22;57445;51.058;3.698;2023-07-13T12:52:50;26.00;74.30
70074;DHT22;57445;51.058;3.698;2023-07-13T12:55:19;26.20;74.30
70074;DHT22;57445;51.058;3.698;2023-07-13T12:57:49;26.40;74.40
70074;DHT22;57445;51.058;3.698;2023-07-13T13:00:26;26.80;73.80
70074;DHT22;57445;51.058;3.698;2023-07-13T13:02:56;26.80;71.70
70074;DHT22;57445;51.058;3.698;2023-07-13T13:05:25;26.10;72.90
70074;DHT22;57445;51.058;3.698;2023-07-13T13:07:53;25.20;74.50
70074;DHT22;57445;51.058;3.698;2023-07-13T13:10:21;25.10;75.20
70074;DHT22;57445;51.058;3.698;2023-07-13T13:12:50;25.70;75.30
70074;DHT22;57445;51.058;3.698;2023-07-13T13:15:18;25.80;73.10
70074;DHT22;57445;51.058;3.698;2023-07-13T13:17:52;25.70;70.90
70074;DHT22;57445;51.058;3.698;2023-07-13T13:20:20;25.60;68.70
70074;DHT22;57445;51.058;3.698;2023-07-13T13:22:49;25.40;69.20
70074;DHT22;57445;51.058;3.698;2023-07-13T13:25:16;25.00;69.80
70074;DHT22;57445;51.058;3.698;2023-07-13T13:27:45;24.70;71.20
70074;DHT22;57445;51.058;3.698;2023-07-13T13:30:14;24.60;70.00
70074;DHT22;57445;51.058;3.698;2023-07-13T13:32:45;24.50;70.70
70074;DHT22;57445;51.058;3.698;2023-07-13T13:35:15;24.40;68.90
70074;DHT22;57445;51.058;3.698;2023-07-13T13:37:44;24.20;69.30
70074;DHT22;57445;51.058;3.698;2023-07-13T13:40:15;24.30;68.70
70074;DHT22;57445;51.058;3.698;2023-07-13T13:42:44;24.30;69.40
70074;DHT22;57445;51.058;3.698;2023-07-13T13:45:12;24.40;68.70
70074;DHT22;57445;51.058;3.698;2023-07-13T13:47:41;24.30;67.60
70074;DHT22;57445;51.058;3.698;2023-07-13T13:50:11;24.10;69.30
70074;DHT22;57445;51.058;3.698;2023-07-13T13:52:41;23.90;69.10
70074;DHT22;57445;51.058;3.698;2023-07-13T13:55:13;24.10;68.50
70074;DHT22;57445;51.058;3.698;2023-07-13T13:57:41;24.30;67.80
70074;DHT22;57445;51.058;3.698;2023-07-13T14:00:12;24.40;69.20
70074;DHT22;57445;51.058;3.698;2023-07-13T14:02:40;24.60;67.10
70074;DHT22;57445;51.058;3.698;2023-07-13T14:05:13;24.70;66.10
70074;DHT22;57445;51.058;3.698;2023-07-13T14:07:44;24.70;66.70
70074;DHT22;57445;51.058;3.698;2023-07-13T14:10:12;24.60;66.50
70074;DHT22;57445;51.058;3.698;2023-07-13T14:12:41;24.60;67.90
70074;DHT22;57445;51.058;3.698;2023-07-13T14:15:13;24.90;65.50
70074;DHT22;57445;51.058;3.698;2023-07-13T14:17:42;24.90;65.10
70074;DHT22;57445;51.058;3.698;2023-07-13T14:20:10;24.90;65.60
70074;DHT22;57445;51.058;3.698;2023-07-13T14:22:38;24.80;65.80
70074;DHT22;57445;51.058;3.698;2023-07-13T14:25:09;24.90;66.70
70074;DHT22;57445;51.058;3.698;2023-07-13T14:27:39;24.90;65.80
70074;DHT22;57445;51.058;3.698;2023-07-13T14:30:12;24.70;67.50
70074;DHT22;57445;51.058;3.698;2023-07-13T14:32:40;24.80;66.90
70074;DHT22;57445;51.058;3.698;2023-07-13T14:35:08;25.10;64.50
70074;DHT22;57445;51.058;3.698;2023-07-13T14:37:38;25.20;64.30
70074;DHT22;57445;51.058;3.698;2023-07-13T14:40:15;25.00;65.70
70074;DHT22;57445;51.058;3.698;2023-07-13T14:42:43;25.00;64.20
70074;DHT22;57445;51.058;3.698;2023-07-13T14:45:14;24.80;65.80
70074;DHT22;57445;51.058;3.698;2023-07-13T14:47:42;24.70;66.70
70074;DHT22;57445;51.058;3.698;2023-07-13T14:50:14;24.80;66.50
70074;DHT22;57445;51.058;3.698;2023-07-13T14:52:44;25.00;64.80
70074;DHT22;57445;51.058;3.698;2023-07-13T14:55:14;25.30;65.10
70074;DHT22;57445;51.058;3.698;2023-07-13T14:57:42;25.80;62.80
70074;DHT22;57445;51.058;3.698;2023-07-13T15:00:13;25.50;62.30
70074;DHT22;57445;51.058;3.698;2023-07-13T15:02:41;25.30;63.20
70074;DHT22;57445;51.058;3.698;2023-07-13T15:05:14;25.00;64.70
70074;DHT22;57445;51.058;3.698;2023-07-13T15:07:42;24.80;64.70
70074;DHT22;57445;51.058;3.698;2023-07-13T15:10:15;24.70;65.20
70074;DHT22;57445;51.058;3.698;2023-07-13T15:12:43;24.50;65.70
70074;DHT22;57445;51.058;3.698;2023-07-13T15:15:12;24.60;65.80
70074;DHT22;57445;51.058;3.698;2023-07-13T15:17:40;24.70;65.50
70074;DHT22;57445;51.058;3.698;2023-07-13T15:20:15;24.60;65.90
70074;DHT22;57445;51.058;3.698;2023-07-13T15:22:44;24.80;65.10
70074;DHT22;57445;51.058;3.698;2023-07-13T15:25:16;25.20;65.60
70074;DHT22;57445;51.058;3.698;2023-07-13T15:27:44;25.10;64.10
70074;DHT22;57445;51.058;3.698;2023-07-13T15:30:12;24.90;63.10
70074;DHT22;57445;51.058;3.698;2023-07-13T15:32:41;24.50;64.60
70074;DHT22;57445;51.058;3.698;2023-07-13T15:35:13;24.50;64.90
70074;DHT22;57445;51.058;3.698;2023-07-13T15:37:41;24.80;64.60
70074;DHT22;57445;51.058;3.698;2023-07-13T15:40:09;24.50;63.20
70074;DHT22;57445;51.058;3.698;2023-07-13T15:42:39;24.80;63.30
70074;DHT22;57445;51.058;3.698;2023-07-13T15:45:14;25.10;62.10
70074;DHT22;57445;51.058;3.698;2023-07-13T15:47:43;25.10;60.50
70074;DHT22;57445;51.058;3.698;2023-07-13T15:50:15;24.80;61.00